WEATHER DATA

YESTERDAY
Time Temp. Dewp. Hum. Wind dir Wind speed Wind gust Bar. 1h Prec. 24h Prec.
07:05 6.1 3.9 86 0 0.6 1019.8 0.0000 0.0000
07:15 6.3 4.1 86 0 0.6 1019.9 0.0000 0.0000
07:26 6.4 4.1 85 0 0.6 1019.8 0.0000 0.0000
07:33 6.5 4.2 85 0 0.6 1019.9 0.0000 0.0000
07:43 6.6 4.3 85 0 0.6 1019.8 0.0000 0.0000
07:54 6.7 4.5 86 135 0.3 0.6 1019.9 0.0000 0.0000
08:04 6.9 4.6 85 0 0.3 1020 0.0000 0.0000
08:14 6.9 4.6 85 0 0.6 1020.1 0.0000 0.0000
08:24 7.2 5 86 0 0.3 1020 0.0000 0.0000
08:34 7.2 4.9 85 0 0.6 1020.2 0.0000 0.0000
08:44 7.4 5.2 86 0 0.6 1020.1 0.0000 0.0000
08:54 7.9 5.7 86 125 0.3 0.8 1020 0.0000 0.0000
09:04 8.1 5.9 86 154 0.3 0.8 1020.2 0.0000 0.0000
09:14 8.4 6 85 191 0.3 0.6 1020.1 0.0000 0.0000
09:24 8.8 6.4 85 90 0.3 0.8 1020.2 0.0000 0.0000
09:35 8.8 6.4 85 54 0.3 0.8 1020.2 0.0000 0.0000
09:44 9 6.6 85 90 0.3 0.8 1020.4 0.0000 0.0000
09:54 9.4 7 85 90 0.6 1.1 1020.5 0.0000 0.0000
10:04 9.7 7.1 84 90 0.3 0.8 1020.4 0.0000 0.0000
10:15 10.1 7.7 85 90 0.3 0.8 1020.4 0.0000 0.0000
10:24 10.5 7.9 84 73 0.6 1.1 1020.4 0.0000 0.0000
10:34 11 8.2 83 90 0.6 1.4 1020.5 0.0000 0.0000
10:45 11.6 8.8 83 90 0.6 1.1 1020.3 0.0000 0.0000
10:55 12.1 8.8 80 125 0.3 0.8 1020.4 0.0000 0.0000
11:04 12.7 9.2 79 90 0.3 0.6 1020.3 0.0000 0.0000
11:14 13.3 9.5 78 90 0.3 1.1 1020.3 0.0000 0.0000
11:25 14 9.8 76 90 0.3 1.1 1020.3 0.0000 0.0000
11:35 14.7 10.1 74 135 0.3 0.8 1020.4 0.0000 0.0000
11:44 15.3 10.5 73 90 0.3 0.6 1020.3 0.0000 0.0000
11:55 16 10.8 71 90 0.3 0.8 1020.3 0.0000 0.0000
12:05 16.8 11.1 69 225 0.3 1.4 1020.2 0.0000 0.0000
12:15 17.6 11.4 67 135 0.3 0.8 1020 0.0000 0.0000
12:25 18.2 11.5 65 198 0.3 1.1 1019.8 0.0000 0.0000
12:35 18.8 11.6 63 153 0.3 0.8 1019.7 0.0000 0.0000
12:45 19.4 11.9 62 195 0.3 1.4 1019.7 0.0000 0.0000
12:55 19.9 11.9 60 158 0.6 1.7 1019.5 0.0000 0.0000
13:06 20.3 11.8 58 220 0.8 1.9 1019.4 0.0000 0.0000
13:15 20.6 11.8 57 215 0.6 1.1 1019.3 0.0000 0.0000
13:25 21 12.2 57 206 0.6 1.7 1019.3 0.0000 0.0000
13:35 21.4 11.7 54 195 0.6 1.9 1019 0.0000 0.0000
13:46 21.8 11.8 53 222 0.6 1.7 1019.2 0.0000 0.0000
13:55 22.1 12.1 53 171 0.3 1.9 1018.9 0.0000 0.0000
14:05 22.3 12 52 209 0.3 1.4 1018.8 0.0000 0.0000
14:16 22.7 11.4 49 235 0.8 2.2 1018.7 0.0000 0.0000
14:26 22.7 12.1 51 155 0.3 1.7 1018.6 0.0000 0.0000
14:36 23 12.3 51 149 0.3 0.8 1018.6 0.0000 0.0000
14:46 23.2 12.5 51 148 0.6 1.4 1018.6 0.0000 0.0000
14:56 23.4 12.4 50 176 0.3 1.1 1018.6 0.0000 0.0000
15:06 23.7 12.4 49 225 0.3 0.8 1018.4 0.0000 0.0000
15:16 23.5 12.2 49 90 0.3 0.8 1018.4 0.0000 0.0000
15:26 23.6 12.3 49 171 0.3 0.8 1018.4 0.0000 0.0000
15:36 23.6 12.3 49 225 0.3 0.6 1018.3 0.0000 0.0000
15:46 23.8 12.5 49 135 0.3 0.6 1018.2 0.0000 0.0000
15:56 23.8 12.1 48 0 0.6 1018.2 0.0000 0.0000
16:07 23.7 13 51 135 0.3 0.6 1018.1 0.0000 0.0000
16:16 23.7 12.7 50 146 0.3 0.6 1018 0.0000 0.0000
16:26 23.4 12.1 49 90 0.3 0.8 1017.9 0.0000 0.0000
16:37 23.1 12.1 50 0 0.6 1018.1 0.0000 0.0000
16:47 22.9 11.9 50 0 0.3 1018 0.0000 0.0000
16:56 22.6 11.7 50 0 0.6 1018 0.0000 0.0000
17:06 22.2 11.9 52 0 0.6 1018.1 0.0000 0.0000
17:17 21.8 11.2 51 322 0.3 0.6 1018.1 0.0000 0.0000
17:27 21.5 11.5 53 0 0.3 1018.2 0.0000 0.0000
17:36 21.1 11.7 55 321 0.3 0.8 1018 0.0000 0.0000
17:47 20.5 11.7 57 0 0.3 1018.1 0.0000 0.0000
17:57 19.8 11.8 60 0 0.6 1018.1 0.0000 0.0000
18:07 19 11.8 63 0 0.3 1018.3 0.0000 0.0000
18:17 18.4 11.2 63 0 0.3 1018.3 0.0000 0.0000
18:27 17.8 11.4 66 204 0.3 0.6 1018.4 0.0000 0.0000
18:37 17.2 10.6 65 90 0.6 0.8 1018.3 0.0000 0.0000
18:47 16.5 10.6 68 90 0.3 0.8 1018.3 0.0000 0.0000
18:58 16 10.1 68 90 0.6 0.8 1018.5 0.0000 0.0000
19:07 15.5 10.1 70 90 0.3 0.6 1018.7 0.0000 0.0000
19:17 14.9 9.5 70 90 0.6 0.8 1018.6 0.0000 0.0000
19:27 14.4 9.2 71 90 0.3 0.6 1018.8 0.0000 0.0000
19:38 14 9 72 90 0.3 0.6 1018.8 0.0000 0.0000
19:47 13.6 8.9 73 90 0.3 0.6 1018.8 0.0000 0.0000
19:57 13.1 8.2 72 315 0.3 0.8 1019 0.0000 0.0000
20:08 12.9 8.6 75 125 0.3 0.6 1019 0.0000 0.0000
20:18 12.6 8.3 75 135 0.3 0.6 1018.9 0.0000 0.0000
20:27 12.4 8.3 76 140 0.3 0.6 1019 0.0000 0.0000
20:38 12.1 7.8 75 90 0.3 0.8 1019 0.0000 0.0000
20:48 11.7 7.4 75 0 0.3 1019.2 0.0000 0.0000
20:58 11.4 7.5 77 45 0.3 0.6 1019.3 0.0000 0.0000
21:08 11.2 7.3 77 90 0.3 0.6 1019.4 0.0000 0.0000
21:18 11 7.3 78 0 0.6 1019.5 0.0000 0.0000
21:28 10.9 7.4 79 36 0.3 0.6 1019.6 0.0000 0.0000
21:38 10.7 7 78 26 0.3 0.6 1019.6 0.0000 0.0000
21:48 10.3 6.6 78 12 0.3 0.6 1019.6 0.0000 0.0000
21:59 10 6.3 78 45 0.3 0.6 1019.7 0.0000 0.0000
22:08 9.7 5.9 77 0 0.6 1019.8 0.0000 0.0000
22:18 9.6 6.1 79 26 0.3 0.6 1019.8 0.0000 0.0000
22:29 9.6 6.5 81 0 0.6 1019.8 0.0000 0.0000
22:39 9.4 5.9 79 0 0.6 1019.9 0.0000 0.0000
22:48 9.2 5.8 79 0 0.6 1019.9 0.0000 0.0000
22:59 8.9 5.5 79 26 0.3 0.6 1019.9 0.0000 0.0000
23:09 8.8 5.5 80 32 0.3 0.6 1020 0.0000 0.0000
23:19 8.7 5.6 81 5 0.3 0.6 1019.9 0.0000 0.0000
23:28 8.6 5.5 81 0 0.6 1019.8 0.0000 0.0000
23:39 8.4 5.3 81 45 0.3 0.6 1019.8 0.0000 0.0000
23:49 8.3 5.2 81 0 0.6 1019.8 0.0000 0.0000

DAY STATISTIC

2018-10-17
TEMPERATURE
AVERAGE
14.8
HIGH
23.8
15:46
LOW
6.1
07:05
PRESSURE
AVERAGE
1019.3
HIGH
1020.5
09:54
LOW
1017.9
16:26
DEWPOINT
AVERAGE
9.0
HIGH
13.0
16:07
LOW
3.9
07:05
HUMIDITY
AVERAGE
70
HIGH
86
07:05
LOW
48
15:56
WIND SPEED
AVERAGE
0.3
HIGH
0.8
13:06
WIND GUST
AVERAGE
0.8
HIGH
2.2
14:16
WIND DIRECTION
PREVAILING
E
24.8%
N
2.0
NE
8.9
E
24.8
SE
15.8
S
8.9
SW
8.9
W
0.0
NW
3.0
PRECIPITATION
RAIN HOUR
0.0
RAIN DAY
0.0
TEMPERATURE (°C)
LOW
6.1
HIGH
23.8
AVERAGE
14.8
PRESSURE (hpa)
LOW
1017.9
HIGH
1020.5
AVERAGE
1019.3
DEVICE